Date,TemperatureHighF,TemperatureAvgF,TemperatureLowF,DewpointHighF,DewpointAvgF,DewpointLowF,HumidityHigh,HumidityAvg,HumidityLow,PressureMaxIn,PressureMinIn,WindSpeedMaxMPH,WindSpeedAvgMPH,GustSpeedMaxMPH,PrecipitationSumIn
2013-1-1,15.6,5.4,-5.4,7.0,-5.3,-14.7,68,58,50,29.42,29.18,4,1,7,0.00
2013-1-2,19.0,16.2,11.7,9.9,6.4,3.4,71,65,58,29.20,29.02,8,3,11,0.00
2013-1-3,22.1,16.6,9.3,15.4,8.0,-0.9,77,68,61,29.13,29.01,4,1,8,0.00
2013-1-4,29.7,19.7,10.4,17.3,9.9,2.6,72,65,55,29.10,28.94,4,1,8,0.00
2013-1-5,25.2,16.2,9.1,16.3,8.0,-0.2,75,70,65,29.09,28.83,8,1,10,0.00
2013-1-6,25.2,19.7,12.0,16.3,10.6,2.7,75,67,57,29.19,28.89,8,1,12,0.00
2013-1-7,36.3,27.6,15.4,24.0,17.6,4.8,76,66,58,29.05,28.82,14,4,18,0.00
2013-1-8,38.1,27.8,12.9,28.7,19.6,6.2,79,71,62,29.01,28.76,13,3,16,1.78
2013-1-9,36.3,31.3,22.3,25.6,20.9,13.3,77,65,53,29.36,28.88,8,2,15,0.00
2013-1-10,41.4,31.9,19.2,31.7,20.3,-99.9,86,64,44,29.37,28.71,66,5,66,1.78
2013-1-11,43.3,37.7,34.9,42.3,35.5,31.4,96,92,86,28.74,28.40,12,6,16,0.00
2013-1-12,44.2,24.4,11.1,42.9,15.5,-0.3,96,69,55,28.99,28.39,10,3,14,0.00
2013-1-13,13.6,9.4,5.4,3.4,-1.8,-4.8,66,59,54,29.14,28.92,4,1,9,0.00
2013-1-14,15.1,8.5,3.7,4.8,-1.1,-4.8,68,64,58,29.29,29.12,4,1,7,0.00
2013-1-15,29.7,19.7,5.7,15.9,8.1,-2.8,73,60,45,29.23,28.81,11,4,13,0.00
2013-1-16,34.0,26.2,15.4,27.7,16.4,-4.7,83,66,49,29.20,28.60,11,3,17,0.00
2013-1-17,18.3,12.7,8.2,2.5,-2.1,-7.4,62,50,43,29.30,29.13,4,1,8,0.00
2013-1-18,41.9,26.1,10.0,30.6,17.5,-0.3,79,69,62,29.27,28.67,14,4,114,1.78
2013-1-19,40.8,26.3,5.9,32.8,17.6,-7.4,84,69,48,28.97,28.61,7,2,17,0.00
2013-1-20,7.9,4.1,0.1,-6.6,-9.2,-11.9,57,50,42,29.20,28.96,4,1,10,0.00
2013-1-21,3.2,-5.9,-8.9,-7.5,-19.6,-23.5,58,45,39,29.13,29.02,5,1,11,0.00
2013-1-22,-0.4,-5.9,-11.7,-13.5,-19.5,-24.0,52,45,40,29.18,29.05,4,1,7,0.00
2013-1-23,16.0,5.3,-4.5,3.5,-7.1,-18.6,65,54,41,29.38,28.96,4,1,7,0.00
2013-1-24,10.9,1.2,-7.4,-3.0,-12.8,-19.7,52,47,43,29.49,29.03,11,3,14,0.00
2013-1-25,21.4,14.2,6.8,13.3,4.0,-4.7,72,63,52,29.21,28.75,12,3,14,0.00
2013-1-26,23.2,11.3,-4.7,8.6,-1.5,-14.4,64,55,45,29.35,29.12,14,3,16,0.00
2013-1-27,30.9,27.2,21.4,27.5,18.2,8.2,87,70,53,29.15,28.84,11,5,14,0.00
2013-1-28,35.4,32.2,30.2,29.9,28.3,-17.5,88,86,79,31.23,28.75,10,2,12,1.78
2013-1-29,35.6,34.1,30.7,32.8,30.2,24.7,90,86,78,28.88,28.59,10,1,11,0.00
2013-1-30,30.7,20.6,11.3,24.7,13.0,1.2,81,72,63,28.70,28.52,2,0,4,0.00
2013-1-31,11.3,6.1,-2.7,1.8,-5.2,-15.0,66,57,49,29.16,28.63,0,0,0,0.00